sensor_id;sensor_type;location;lat;lon;timestamp;temperature;humidity
80212;DHT22;70434;37.956;23.722;2023-07-20T00:01:22;34.10;26.20
80212;DHT22;70434;37.956;23.722;2023-07-20T00:03:47;33.90;26.40
80212;DHT22;70434;37.956;23.722;2023-07-20T00:06:29;33.80;26.50
80212;DHT22;70434;37.956;23.722;2023-07-20T00:08:55;33.80;26.40
80212;DHT22;70434;37.956;23.722;2023-07-20T00:11:25;33.90;26.30
80212;DHT22;70434;37.956;23.722;2023-07-20T00:13:51;34.00;26.70
80212;DHT22;70434;37.956;23.722;2023-07-20T00:16:17;34.10;26.70
80212;DHT22;70434;37.956;23.722;2023-07-20T00:18:42;34.00;26.30
80212;DHT22;70434;37.956;23.722;2023-07-20T00:21:09;34.10;26.40
80212;DHT22;70434;37.956;23.722;2023-07-20T00:23:35;34.10;26.40
80212;DHT22;70434;37.956;23.722;2023-07-20T00:26:00;34.10;26.40
80212;DHT22;70434;37.956;23.722;2023-07-20T00:28:26;34.10;26.40
80212;DHT22;70434;37.956;23.722;2023-07-20T00:30:52;34.10;27.20
80212;DHT22;70434;37.956;23.722;2023-07-20T00:33:18;34.10;26.40
80212;DHT22;70434;37.956;23.722;2023-07-20T00:35:44;34.10;26.60
80212;DHT22;70434;37.956;23.722;2023-07-20T00:38:10;34.10;26.40
80212;DHT22;70434;37.956;23.722;2023-07-20T00:40:37;34.10;26.50
80212;DHT22;70434;37.956;23.722;2023-07-20T00:43:03;34.10;26.40
80212;DHT22;70434;37.956;23.722;2023-07-20T00:45:29;34.00;26.40
80212;DHT22;70434;37.956;23.722;2023-07-20T00:47:56;33.90;26.40
80212;DHT22;70434;37.956;23.722;2023-07-20T00:50:22;33.80;26.60
80212;DHT22;70434;37.956;23.722;2023-07-20T00:52:49;33.80;26.40
80212;DHT22;70434;37.956;23.722;2023-07-20T00:55:15;33.80;26.20
80212;DHT22;70434;37.956;23.722;2023-07-20T00:57:41;33.80;26.20
80212;DHT22;70434;37.956;23.722;2023-07-20T01:00:07;33.80;26.20
80212;DHT22;70434;37.956;23.722;2023-07-20T01:02:33;33.90;26.30
80212;DHT22;70434;37.956;23.722;2023-07-20T01:04:59;33.80;26.20
80212;DHT22;70434;37.956;23.722;2023-07-20T01:12:53;33.50;26.50
80212;DHT22;70434;37.956;23.722;2023-07-20T01:15:20;33.40;26.60
80212;DHT22;70434;37.956;23.722;2023-07-20T01:17:46;33.40;26.60
80212;DHT22;70434;37.956;23.722;2023-07-20T01:20:19;33.40;26.70
80212;DHT22;70434;37.956;23.722;2023-07-20T01:23:07;33.40;26.80
80212;DHT22;70434;37.956;23.722;2023-07-20T01:28:57;33.30;27.00
80212;DHT22;70434;37.956;23.722;2023-07-20T01:31:33;33.20;27.00
80212;DHT22;70434;37.956;23.722;2023-07-20T01:34:01;33.10;27.10
80212;DHT22;70434;37.956;23.722;2023-07-20T01:36:30;33.10;27.10
80212;DHT22;70434;37.956;23.722;2023-07-20T01:38:59;33.00;27.20
80212;DHT22;70434;37.956;23.722;2023-07-20T01:41:25;33.00;27.20
80212;DHT22;70434;37.956;23.722;2023-07-20T01:43:50;33.10;27.00
80212;DHT22;70434;37.956;23.722;2023-07-20T01:46:16;33.00;27.20
80212;DHT22;70434;37.956;23.722;2023-07-20T01:48:42;32.90;27.10
80212;DHT22;70434;37.956;23.722;2023-07-20T01:51:08;33.00;27.10
80212;DHT22;70434;37.956;23.722;2023-07-20T01:53:34;33.10;27.10
80212;DHT22;70434;37.956;23.722;2023-07-20T01:56:02;33.10;27.00
80212;DHT22;70434;37.956;23.722;2023-07-20T01:58:28;33.10;26.90
80212;DHT22;70434;37.956;23.722;2023-07-20T02:00:53;33.20;26.90
80212;DHT22;70434;37.956;23.722;2023-07-20T02:03:19;33.20;26.90
80212;DHT22;70434;37.956;23.722;2023-07-20T02:05:47;33.30;26.80
80212;DHT22;70434;37.956;23.722;2023-07-20T02:08:13;33.40;26.80
80212;DHT22;70434;37.956;23.722;2023-07-20T02:10:38;33.40;26.80
80212;DHT22;70434;37.956;23.722;2023-07-20T02:13:04;33.30;27.10
80212;DHT22;70434;37.956;23.722;2023-07-20T02:15:30;33.30;27.20
80212;DHT22;70434;37.956;23.722;2023-07-20T02:17:55;33.30;27.10
80212;DHT22;70434;37.956;23.722;2023-07-20T02:20:21;33.40;27.00
80212;DHT22;70434;37.956;23.722;2023-07-20T02:22:49;33.40;26.80
80212;DHT22;70434;37.956;23.722;2023-07-20T02:25:15;33.40;27.00
80212;DHT22;70434;37.956;23.722;2023-07-20T02:27:41;33.50;26.90
80212;DHT22;70434;37.956;23.722;2023-07-20T02:30:07;33.50;26.90
80212;DHT22;70434;37.956;23.722;2023-07-20T02:32:34;33.50;26.90
80212;DHT22;70434;37.956;23.722;2023-07-20T02:35:00;33.50;26.80
80212;DHT22;70434;37.956;23.722;2023-07-20T02:37:26;33.50;27.00
80212;DHT22;70434;37.956;23.722;2023-07-20T02:39:52;33.50;27.00
80212;DHT22;70434;37.956;23.722;2023-07-20T02:42:17;33.50;26.80
80212;DHT22;70434;37.956;23.722;2023-07-20T02:44:44;33.60;26.70
80212;DHT22;70434;37.956;23.722;2023-07-20T02:47:10;33.50;26.90
80212;DHT22;70434;37.956;23.722;2023-07-20T02:49:36;33.60;27.00
80212;DHT22;70434;37.956;23.722;2023-07-20T02:52:02;33.60;26.90
80212;DHT22;70434;37.956;23.722;2023-07-20T02:54:28;33.70;26.90
80212;DHT22;70434;37.956;23.722;2023-07-20T02:56:55;33.70;26.90
80212;DHT22;70434;37.956;23.722;2023-07-20T02:59:21;33.70;26.80
80212;DHT22;70434;37.956;23.722;2023-07-20T03:01:46;33.60;26.80
80212;DHT22;70434;37.956;23.722;2023-07-20T03:04:12;33.60;27.00
80212;DHT22;70434;37.956;23.722;2023-07-20T03:06:38;33.60;27.10
80212;DHT22;70434;37.956;23.722;2023-07-20T03:09:04;33.60;27.30
80212;DHT22;70434;37.956;23.722;2023-07-20T03:11:31;33.60;27.30
80212;DHT22;70434;37.956;23.722;2023-07-20T03:13:57;33.60;27.40
80212;DHT22;70434;37.956;23.722;2023-07-20T03:16:23;33.60;27.50
80212;DHT22;70434;37.956;23.722;2023-07-20T03:18:50;33.60;27.50
80212;DHT22;70434;37.956;23.722;2023-07-20T03:21:16;33.60;27.50
80212;DHT22;70434;37.956;23.722;2023-07-20T03:23:42;33.50;27.40
80212;DHT22;70434;37.956;23.722;2023-07-20T03:26:08;33.30;27.60
80212;DHT22;70434;37.956;23.722;2023-07-20T03:28:35;33.20;27.70
80212;DHT22;70434;37.956;23.722;2023-07-20T03:31:00;33.30;27.70
80212;DHT22;70434;37.956;23.722;2023-07-20T03:33:30;33.30;28.10
80212;DHT22;70434;37.956;23.722;2023-07-20T03:35:57;33.30;28.20
80212;DHT22;70434;37.956;23.722;2023-07-20T03:38:24;33.30;28.10
80212;DHT22;70434;37.956;23.722;2023-07-20T03:43:18;33.10;27.80
80212;DHT22;70434;37.956;23.722;2023-07-20T03:45:44;33.10;27.90
80212;DHT22;70434;37.956;23.722;2023-07-20T03:48:21;33.10;28.00
80212;DHT22;70434;37.956;23.722;2023-07-20T03:50:49;33.10;28.00
80212;DHT22;70434;37.956;23.722;2023-07-20T03:53:16;33.10;28.10
80212;DHT22;70434;37.956;23.722;2023-07-20T03:55:49;33.10;28.20
80212;DHT22;70434;37.956;23.722;2023-07-20T03:58:16;33.10;28.20
80212;DHT22;70434;37.956;23.722;2023-07-20T04:00:50;33.10;28.20
80212;DHT22;70434;37.956;23.722;2023-07-20T04:03:16;33.10;28.10
80212;DHT22;70434;37.956;23.722;2023-07-20T04:05:42;33.10;28.20
80212;DHT22;70434;37.956;23.722;2023-07-20T04:08:08;33.10;28.20
80212;DHT22;70434;37.956;23.722;2023-07-20T04:10:36;33.10;28.20
80212;DHT22;70434;37.956;23.722;2023-07-20T04:13:02;33.00;28.20
80212;DHT22;70434;37.956;23.722;2023-07-20T04:15:28;33.00;28.40
80212;DHT22;70434;37.956;23.722;2023-07-20T04:17:54;32.80;28.40
80212;DHT22;70434;37.956;23.722;2023-07-20T04:20:22;32.80;28.70
80212;DHT22;70434;37.956;23.722;2023-07-20T04:22:48;32.70;28.70
80212;DHT22;70434;37.956;23.722;2023-07-20T04:25:14;32.70;28.80
80212;DHT22;70434;37.956;23.722;2023-07-20T04:27:40;32.80;28.70
80212;DHT22;70434;37.956;23.722;2023-07-20T04:30:09;32.80;28.80
80212;DHT22;70434;37.956;23.722;2023-07-20T04:32:36;32.70;29.00
80212;DHT22;70434;37.956;23.722;2023-07-20T04:35:06;32.80;28.90
80212;DHT22;70434;37.956;23.722;2023-07-20T04:37:33;32.80;28.90
80212;DHT22;70434;37.956;23.722;2023-07-20T04:39:59;32.80;28.90
80212;DHT22;70434;37.956;23.722;2023-07-20T04:42:24;32.90;28.90
80212;DHT22;70434;37.956;23.722;2023-07-20T04:44:50;32.90;28.90
80212;DHT22;70434;37.956;23.722;2023-07-20T04:47:16;32.70;29.00
80212;DHT22;70434;37.956;23.722;2023-07-20T04:49:41;32.60;29.30
80212;DHT22;70434;37.956;23.722;2023-07-20T04:52:07;32.60;29.40
80212;DHT22;70434;37.956;23.722;2023-07-20T04:54:33;32.70;29.30
80212;DHT22;70434;37.956;23.722;2023-07-20T04:56:59;32.80;29.10
80212;DHT22;70434;37.956;23.722;2023-07-20T04:59:25;32.90;29.10
80212;DHT22;70434;37.956;23.722;2023-07-20T05:01:50;32.70;29.30
80212;DHT22;70434;37.956;23.722;2023-07-20T05:04:16;32.70;29.40
80212;DHT22;70434;37.956;23.722;2023-07-20T05:06:42;32.70;29.10
80212;DHT22;70434;37.956;23.722;2023-07-20T05:09:08;32.80;29.00
80212;DHT22;70434;37.956;23.722;2023-07-20T05:11:34;32.90;29.10
80212;DHT22;70434;37.956;23.722;2023-07-20T05:14:00;33.00;29.10
80212;DHT22;70434;37.956;23.722;2023-07-20T05:16:26;33.00;28.70
80212;DHT22;70434;37.956;23.722;2023-07-20T05:18:51;33.10;28.70
80212;DHT22;70434;37.956;23.722;2023-07-20T05:21:17;33.00;28.70
80212;DHT22;70434;37.956;23.722;2023-07-20T05:23:43;33.10;28.60
80212;DHT22;70434;37.956;23.722;2023-07-20T05:26:11;33.10;28.60
80212;DHT22;70434;37.956;23.722;2023-07-20T05:28:36;33.10;28.80
80212;DHT22;70434;37.956;23.722;2023-07-20T05:31:03;33.20;28.80
80212;DHT22;70434;37.956;23.722;2023-07-20T05:33:29;33.20;28.60
80212;DHT22;70434;37.956;23.722;2023-07-20T05:35:54;33.30;28.60
80212;DHT22;70434;37.956;23.722;2023-07-20T05:38:20;33.30;28.40
80212;DHT22;70434;37.956;23.722;2023-07-20T05:40:46;33.40;28.30
80212;DHT22;70434;37.956;23.722;2023-07-20T05:43:12;33.40;28.40
80212;DHT22;70434;37.956;23.722;2023-07-20T05:45:41;33.50;28.40
80212;DHT22;70434;37.956;23.722;2023-07-20T05:48:08;33.40;28.40
80212;DHT22;70434;37.956;23.722;2023-07-20T05:50:37;33.30;28.40
80212;DHT22;70434;37.956;23.722;2023-07-20T05:53:03;33.40;28.40
80212;DHT22;70434;37.956;23.722;2023-07-20T05:55:29;33.50;28.20
80212;DHT22;70434;37.956;23.722;2023-07-20T05:57:55;33.60;28.00
80212;DHT22;70434;37.956;23.722;2023-07-20T06:00:23;33.80;27.90
80212;DHT22;70434;37.956;23.722;2023-07-20T06:02:53;33.90;27.90
80212;DHT22;70434;37.956;23.722;2023-07-20T06:05:19;33.90;27.80
80212;DHT22;70434;37.956;23.722;2023-07-20T06:07:45;33.90;28.40
80212;DHT22;70434;37.956;23.722;2023-07-20T06:10:11;33.90;27.70
80212;DHT22;70434;37.956;23.722;2023-07-20T06:12:37;33.90;27.70
80212;DHT22;70434;37.956;23.722;2023-07-20T06:15:04;34.00;27.70
80212;DHT22;70434;37.956;23.722;2023-07-20T06:17:31;34.10;27.70
80212;DHT22;70434;37.956;23.722;2023-07-20T06:19:57;34.20;27.50
80212;DHT22;70434;37.956;23.722;2023-07-20T06:22:22;34.20;27.50
80212;DHT22;70434;37.956;23.722;2023-07-20T06:24:48;34.20;27.20
80212;DHT22;70434;37.956;23.722;2023-07-20T06:27:14;34.10;27.40
80212;DHT22;70434;37.956;23.722;2023-07-20T06:29:39;34.20;27.30
80212;DHT22;70434;37.956;23.722;2023-07-20T06:32:05;34.30;27.30
80212;DHT22;70434;37.956;23.722;2023-07-20T06:34:32;34.40;26.90
80212;DHT22;70434;37.956;23.722;2023-07-20T06:37:02;34.40;27.10
80212;DHT22;70434;37.956;23.722;2023-07-20T06:39:29;34.40;27.00
80212;DHT22;70434;37.956;23.722;2023-07-20T06:41:55;34.40;27.00
80212;DHT22;70434;37.956;23.722;2023-07-20T06:44:21;34.40;27.30
80212;DHT22;70434;37.956;23.722;2023-07-20T06:46:46;34.40;27.30
80212;DHT22;70434;37.956;23.722;2023-07-20T06:49:27;34.50;27.10
80212;DHT22;70434;37.956;23.722;2023-07-20T06:51:53;34.60;27.00
80212;DHT22;70434;37.956;23.722;2023-07-20T06:54:19;34.60;27.00
80212;DHT22;70434;37.956;23.722;2023-07-20T06:56:44;34.50;27.30
80212;DHT22;70434;37.956;23.722;2023-07-20T06:59:10;34.50;27.90
80212;DHT22;70434;37.956;23.722;2023-07-20T07:01:36;34.60;27.30
80212;DHT22;70434;37.956;23.722;2023-07-20T07:04:02;34.40;27.20
80212;DHT22;70434;37.956;23.722;2023-07-20T07:06:28;34.40;27.40
80212;DHT22;70434;37.956;23.722;2023-07-20T07:08:54;34.50;27.30
80212;DHT22;70434;37.956;23.722;2023-07-20T07:11:21;34.70;27.10
80212;DHT22;70434;37.956;23.722;2023-07-20T07:13:47;34.80;27.00
80212;DHT22;70434;37.956;23.722;2023-07-20T07:16:17;34.90;26.80
80212;DHT22;70434;37.956;23.722;2023-07-20T07:18:45;34.90;26.70
80212;DHT22;70434;37.956;23.722;2023-07-20T07:21:11;35.10;26.90
80212;DHT22;70434;37.956;23.722;2023-07-20T07:23:40;35.10;26.90
80212;DHT22;70434;37.956;23.722;2023-07-20T07:26:06;35.10;26.40
80212;DHT22;70434;37.956;23.722;2023-07-20T07:28:32;35.10;26.70
80212;DHT22;70434;37.956;23.722;2023-07-20T07:30:58;35.10;26.90
80212;DHT22;70434;37.956;23.722;2023-07-20T07:33:24;35.20;26.70
80212;DHT22;70434;37.956;23.722;2023-07-20T07:35:51;35.30;26.10
80212;DHT22;70434;37.956;23.722;2023-07-20T07:38:18;35.40;25.80
80212;DHT22;70434;37.956;23.722;2023-07-20T07:40:45;35.40;25.70
80212;DHT22;70434;37.956;23.722;2023-07-20T07:43:10;35.50;25.90
80212;DHT22;70434;37.956;23.722;2023-07-20T07:45:37;35.60;25.70
80212;DHT22;70434;37.956;23.722;2023-07-20T07:48:04;35.60;26.20
80212;DHT22;70434;37.956;23.722;2023-07-20T07:50:30;35.70;26.20
80212;DHT22;70434;37.956;23.722;2023-07-20T07:52:56;35.70;25.90
80212;DHT22;70434;37.956;23.722;2023-07-20T07:55:22;35.70;25.70
80212;DHT22;70434;37.956;23.722;2023-07-20T07:57:47;35.80;25.60
80212;DHT22;70434;37.956;23.722;2023-07-20T08:00:14;35.80;25.80
80212;DHT22;70434;37.956;23.722;2023-07-20T08:02:41;35.90;26.70
80212;DHT22;70434;37.956;23.722;2023-07-20T08:05:08;36.00;25.60
80212;DHT22;70434;37.956;23.722;2023-07-20T08:07:34;36.10;25.40
80212;DHT22;70434;37.956;23.722;2023-07-20T08:10:00;36.10;25.30
80212;DHT22;70434;37.956;23.722;2023-07-20T08:12:26;36.20;25.40
80212;DHT22;70434;37.956;23.722;2023-07-20T08:14:52;36.20;25.40
80212;DHT22;70434;37.956;23.722;2023-07-20T08:17:18;36.10;25.60
80212;DHT22;70434;37.956;23.722;2023-07-20T08:19:45;36.20;25.40
80212;DHT22;70434;37.956;23.722;2023-07-20T08:22:11;36.30;24.90
80212;DHT22;70434;37.956;23.722;2023-07-20T08:24:41;36.30;25.00
80212;DHT22;70434;37.956;23.722;2023-07-20T08:27:07;36.40;25.00
80212;DHT22;70434;37.956;23.722;2023-07-20T08:29:34;36.40;24.50
80212;DHT22;70434;37.956;23.722;2023-07-20T08:32:00;36.40;24.60
80212;DHT22;70434;37.956;23.722;2023-07-20T08:34:25;36.50;24.50
80212;DHT22;70434;37.956;23.722;2023-07-20T08:36:51;36.60;24.70
80212;DHT22;70434;37.956;23.722;2023-07-20T08:39:17;36.70;24.70
80212;DHT22;70434;37.956;23.722;2023-07-20T08:41:43;36.80;24.40
80212;DHT22;70434;37.956;23.722;2023-07-20T08:44:10;36.80;24.10
80212;DHT22;70434;37.956;23.722;2023-07-20T08:46:38;36.90;24.10
80212;DHT22;70434;37.956;23.722;2023-07-20T08:49:05;36.70;24.10
80212;DHT22;70434;37.956;23.722;2023-07-20T08:51:32;36.60;24.50
80212;DHT22;70434;37.956;23.722;2023-07-20T08:53:59;36.50;24.60
80212;DHT22;70434;37.956;23.722;2023-07-20T08:56:25;36.60;24.70
80212;DHT22;70434;37.956;23.722;2023-07-20T08:58:55;36.70;24.40
80212;DHT22;70434;37.956;23.722;2023-07-20T09:01:22;36.80;24.00
80212;DHT22;70434;37.956;23.722;2023-07-20T09:03:50;37.00;24.20
80212;DHT22;70434;37.956;23.722;2023-07-20T09:06:16;37.10;23.70
80212;DHT22;70434;37.956;23.722;2023-07-20T09:08:42;37.20;23.50
80212;DHT22;70434;37.956;23.722;2023-07-20T09:11:12;37.30;23.30
80212;DHT22;70434;37.956;23.722;2023-07-20T09:13:39;37.30;23.00
80212;DHT22;70434;37.956;23.722;2023-07-20T09:16:04;37.30;23.10
80212;DHT22;70434;37.956;23.722;2023-07-20T09:18:32;37.30;22.80
80212;DHT22;70434;37.956;23.722;2023-07-20T09:21:00;37.40;22.60
80212;DHT22;70434;37.956;23.722;2023-07-20T09:23:36;37.50;22.60
80212;DHT22;70434;37.956;23.722;2023-07-20T09:26:15;37.50;22.80
80212;DHT22;70434;37.956;23.722;2023-07-20T09:28:51;37.60;22.40
80212;DHT22;70434;37.956;23.722;2023-07-20T09:31:19;37.70;21.90
80212;DHT22;70434;37.956;23.722;2023-07-20T09:33:49;37.80;21.60
80212;DHT22;70434;37.956;23.722;2023-07-20T09:36:14;37.90;21.40
80212;DHT22;70434;37.956;23.722;2023-07-20T09:38:43;37.90;21.20
80212;DHT22;70434;37.956;23.722;2023-07-20T09:41:15;37.90;20.80
80212;DHT22;70434;37.956;23.722;2023-07-20T09:43:45;37.90;21.00
80212;DHT22;70434;37.956;23.722;2023-07-20T09:46:11;38.00;21.40
80212;DHT22;70434;37.956;23.722;2023-07-20T09:48:37;38.00;22.10
80212;DHT22;70434;37.956;23.722;2023-07-20T09:51:03;38.00;21.30
80212;DHT22;70434;37.956;23.722;2023-07-20T09:53:33;38.10;21.30
80212;DHT22;70434;37.956;23.722;2023-07-20T09:56:00;38.30;20.80
80212;DHT22;70434;37.956;23.722;2023-07-20T09:58:26;38.30;20.80
80212;DHT22;70434;37.956;23.722;2023-07-20T10:00:54;38.30;21.10
80212;DHT22;70434;37.956;23.722;2023-07-20T10:03:28;38.30;21.20
80212;DHT22;70434;37.956;23.722;2023-07-20T10:06:02;38.30;21.60
80212;DHT22;70434;37.956;23.722;2023-07-20T10:08:30;38.30;23.20
80212;DHT22;70434;37.956;23.722;2023-07-20T10:10:59;38.30;23.60
80212;DHT22;70434;37.956;23.722;2023-07-20T10:13:27;38.30;23.70
80212;DHT22;70434;37.956;23.722;2023-07-20T10:16:31;38.30;23.70
80212;DHT22;70434;37.956;23.722;2023-07-20T10:19:10;38.20;24.00
80212;DHT22;70434;37.956;23.722;2023-07-20T10:21:40;38.00;24.00
80212;DHT22;70434;37.956;23.722;2023-07-20T10:24:08;38.00;23.90
80212;DHT22;70434;37.956;23.722;2023-07-20T10:26:34;37.90;23.90
80212;DHT22;70434;37.956;23.722;2023-07-20T10:29:01;37.80;23.90
80212;DHT22;70434;37.956;23.722;2023-07-20T10:31:28;37.70;23.80
80212;DHT22;70434;37.956;23.722;2023-07-20T10:33:56;37.70;24.10
80212;DHT22;70434;37.956;23.722;2023-07-20T10:36:27;37.80;24.00
80212;DHT22;70434;37.956;23.722;2023-07-20T10:38:53;37.80;24.00
80212;DHT22;70434;37.956;23.722;2023-07-20T10:44:01;37.70;23.80
80212;DHT22;70434;37.956;23.722;2023-07-20T10:49:09;37.70;23.60
80212;DHT22;70434;37.956;23.722;2023-07-20T10:51:59;37.70;23.60
80212;DHT22;70434;37.956;23.722;2023-07-20T10:56:51;37.80;23.40
80212;DHT22;70434;37.956;23.722;2023-07-20T10:59:36;37.90;23.60
80212;DHT22;70434;37.956;23.722;2023-07-20T11:02:08;38.00;23.40
80212;DHT22;70434;37.956;23.722;2023-07-20T11:07:06;38.00;23.50
80212;DHT22;70434;37.956;23.722;2023-07-20T11:09:36;38.00;23.60
80212;DHT22;70434;37.956;23.722;2023-07-20T11:12:13;38.10;23.40
80212;DHT22;70434;37.956;23.722;2023-07-20T11:14:56;38.10;23.40
80212;DHT22;70434;37.956;23.722;2023-07-20T11:17:29;38.10;23.40
80212;DHT22;70434;37.956;23.722;2023-07-20T11:19:59;38.20;23.20
80212;DHT22;70434;37.956;23.722;2023-07-20T11:22:31;38.30;23.40
80212;DHT22;70434;37.956;23.722;2023-07-20T11:24:57;38.40;23.20
80212;DHT22;70434;37.956;23.722;2023-07-20T11:27:23;38.40;23.70
80212;DHT22;70434;37.956;23.722;2023-07-20T11:29:49;38.40;23.00
80212;DHT22;70434;37.956;23.722;2023-07-20T11:32:23;38.50;22.50
80212;DHT22;70434;37.956;23.722;2023-07-20T11:34:49;38.60;22.60
80212;DHT22;70434;37.956;23.722;2023-07-20T11:37:16;38.70;22.60
80212;DHT22;70434;37.956;23.722;2023-07-20T11:39:42;38.80;22.40
80212;DHT22;70434;37.956;23.722;2023-07-20T11:42:08;38.90;22.30
80212;DHT22;70434;37.956;23.722;2023-07-20T11:44:35;38.90;22.50
80212;DHT22;70434;37.956;23.722;2023-07-20T11:47:10;38.90;22.70
80212;DHT22;70434;37.956;23.722;2023-07-20T11:49:43;38.80;22.60
80212;DHT22;70434;37.956;23.722;2023-07-20T11:52:16;38.90;22.80
80212;DHT22;70434;37.956;23.722;2023-07-20T11:54:43;39.10;22.90
80212;DHT22;70434;37.956;23.722;2023-07-20T11:57:21;39.10;22.80
80212;DHT22;70434;37.956;23.722;2023-07-20T11:59:54;39.10;22.10
80212;DHT22;70434;37.956;23.722;2023-07-20T12:02:23;38.90;22.20
80212;DHT22;70434;37.956;23.722;2023-07-20T12:04:51;39.00;22.50
80212;DHT22;70434;37.956;23.722;2023-07-20T12:07:19;39.00;22.70
80212;DHT22;70434;37.956;23.722;2023-07-20T12:09:45;39.00;22.50
80212;DHT22;70434;37.956;23.722;2023-07-20T12:12:28;39.10;22.10
80212;DHT22;70434;37.956;23.722;2023-07-20T12:14:54;39.00;22.10
80212;DHT22;70434;37.956;23.722;2023-07-20T12:17:20;39.00;22.20
80212;DHT22;70434;37.956;23.722;2023-07-20T12:19:45;39.20;22.00
80212;DHT22;70434;37.956;23.722;2023-07-20T12:22:11;39.30;21.90
80212;DHT22;70434;37.956;23.722;2023-07-20T12:24:37;39.30;21.60
80212;DHT22;70434;37.956;23.722;2023-07-20T12:27:03;39.20;21.80
80212;DHT22;70434;37.956;23.722;2023-07-20T12:29:29;39.20;22.00
80212;DHT22;70434;37.956;23.722;2023-07-20T12:31:57;39.10;22.00
80212;DHT22;70434;37.956;23.722;2023-07-20T12:34:22;39.20;21.90
80212;DHT22;70434;37.956;23.722;2023-07-20T12:36:48;39.30;21.80
80212;DHT22;70434;37.956;23.722;2023-07-20T12:39:14;39.40;21.90
80212;DHT22;70434;37.956;23.722;2023-07-20T12:41:40;39.40;21.50
80212;DHT22;70434;37.956;23.722;2023-07-20T12:44:05;39.50;21.40
80212;DHT22;70434;37.956;23.722;2023-07-20T12:46:31;39.60;21.10
80212;DHT22;70434;37.956;23.722;2023-07-20T12:49:00;39.60;21.00
80212;DHT22;70434;37.956;23.722;2023-07-20T12:51:26;39.70;20.80
80212;DHT22;70434;37.956;23.722;2023-07-20T12:53:52;39.80;21.00
80212;DHT22;70434;37.956;23.722;2023-07-20T12:56:17;39.80;21.10
80212;DHT22;70434;37.956;23.722;2023-07-20T12:58:44;39.80;21.10
80212;DHT22;70434;37.956;23.722;2023-07-20T13:01:09;39.80;21.20
80212;DHT22;70434;37.956;23.722;2023-07-20T13:03:37;39.70;21.50
80212;DHT22;70434;37.956;23.722;2023-07-20T13:06:03;39.90;21.40
80212;DHT22;70434;37.956;23.722;2023-07-20T13:08:29;40.00;20.80
80212;DHT22;70434;37.956;23.722;2023-07-20T13:10:55;40.00;20.80
80212;DHT22;70434;37.956;23.722;2023-07-20T13:13:20;40.10;20.90
80212;DHT22;70434;37.956;23.722;2023-07-20T13:15:46;40.20;20.90
80212;DHT22;70434;37.956;23.722;2023-07-20T13:18:13;40.20;21.00
80212;DHT22;70434;37.956;23.722;2023-07-20T13:20:39;40.20;21.10
80212;DHT22;70434;37.956;23.722;2023-07-20T13:23:05;40.30;20.80
80212;DHT22;70434;37.956;23.722;2023-07-20T13:25:31;40.30;20.80
80212;DHT22;70434;37.956;23.722;2023-07-20T13:27:56;40.40;20.60
80212;DHT22;70434;37.956;23.722;2023-07-20T13:30:22;40.50;20.70
80212;DHT22;70434;37.956;23.722;2023-07-20T13:32:48;40.60;20.60
80212;DHT22;70434;37.956;23.722;2023-07-20T13:35:14;40.80;20.60
80212;DHT22;70434;37.956;23.722;2023-07-20T13:37:40;40.90;20.30
80212;DHT22;70434;37.956;23.722;2023-07-20T13:40:07;41.00;20.30
80212;DHT22;70434;37.956;23.722;2023-07-20T13:42:39;41.20;20.30
80212;DHT22;70434;37.956;23.722;2023-07-20T13:45:06;41.30;20.10
80212;DHT22;70434;37.956;23.722;2023-07-20T13:47:32;41.30;20.00
80212;DHT22;70434;37.956;23.722;2023-07-20T13:49:58;41.30;19.80
80212;DHT22;70434;37.956;23.722;2023-07-20T13:52:24;41.40;19.70
80212;DHT22;70434;37.956;23.722;2023-07-20T13:54:49;41.40;19.90
80212;DHT22;70434;37.956;23.722;2023-07-20T13:57:15;41.40;20.00
80212;DHT22;70434;37.956;23.722;2023-07-20T13:59:41;41.60;19.50
80212;DHT22;70434;37.956;23.722;2023-07-20T14:02:07;41.60;19.40
80212;DHT22;70434;37.956;23.722;2023-07-20T14:04:33;41.60;19.60
80212;DHT22;70434;37.956;23.722;2023-07-20T14:06:59;41.60;19.80
80212;DHT22;70434;37.956;23.722;2023-07-20T14:09:25;41.60;19.60
80212;DHT22;70434;37.956;23.722;2023-07-20T14:11:50;41.60;19.40
80212;DHT22;70434;37.956;23.722;2023-07-20T14:14:16;41.60;19.70
80212;DHT22;70434;37.956;23.722;2023-07-20T14:16:42;41.60;19.30
80212;DHT22;70434;37.956;23.722;2023-07-20T14:19:08;41.50;19.50
80212;DHT22;70434;37.956;23.722;2023-07-20T14:21:33;41.60;19.80
80212;DHT22;70434;37.956;23.722;2023-07-20T14:23:59;41.70;19.40
80212;DHT22;70434;37.956;23.722;2023-07-20T14:26:25;41.80;19.20
80212;DHT22;70434;37.956;23.722;2023-07-20T14:28:51;42.00;19.30
80212;DHT22;70434;37.956;23.722;2023-07-20T14:31:19;42.00;19.20
80212;DHT22;70434;37.956;23.722;2023-07-20T14:33:45;42.10;19.30
80212;DHT22;70434;37.956;23.722;2023-07-20T14:36:11;42.10;19.10
80212;DHT22;70434;37.956;23.722;2023-07-20T14:38:37;42.10;19.10
80212;DHT22;70434;37.956;23.722;2023-07-20T14:41:03;42.10;19.00
80212;DHT22;70434;37.956;23.722;2023-07-20T14:43:29;42.10;19.10
80212;DHT22;70434;37.956;23.722;2023-07-20T14:45:55;42.00;19.00
80212;DHT22;70434;37.956;23.722;2023-07-20T14:48:21;42.10;19.30
80212;DHT22;70434;37.956;23.722;2023-07-20T14:50:47;42.00;19.80
80212;DHT22;70434;37.956;23.722;2023-07-20T14:53:13;41.80;20.00
80212;DHT22;70434;37.956;23.722;2023-07-20T14:55:41;41.70;20.30
80212;DHT22;70434;37.956;23.722;2023-07-20T14:58:07;41.60;20.90
80212;DHT22;70434;37.956;23.722;2023-07-20T15:00:33;41.40;20.80
80212;DHT22;70434;37.956;23.722;2023-07-20T15:02:59;41.40;21.10
80212;DHT22;70434;37.956;23.722;2023-07-20T15:05:25;41.40;21.50
80212;DHT22;70434;37.956;23.722;2023-07-20T15:07:54;41.30;21.90
80212;DHT22;70434;37.956;23.722;2023-07-20T15:10:20;41.40;21.90
80212;DHT22;70434;37.956;23.722;2023-07-20T15:12:46;41.50;21.90
80212;DHT22;70434;37.956;23.722;2023-07-20T15:15:13;41.50;21.50
80212;DHT22;70434;37.956;23.722;2023-07-20T15:17:42;41.60;21.40
80212;DHT22;70434;37.956;23.722;2023-07-20T15:20:11;41.70;21.10
80212;DHT22;70434;37.956;23.722;2023-07-20T15:22:37;41.60;20.80
80212;DHT22;70434;37.956;23.722;2023-07-20T15:25:06;41.70;20.80
80212;DHT22;70434;37.956;23.722;2023-07-20T15:27:32;41.70;21.10
80212;DHT22;70434;37.956;23.722;2023-07-20T15:29:59;41.80;21.50
80212;DHT22;70434;37.956;23.722;2023-07-20T15:32:24;41.70;21.90
80212;DHT22;70434;37.956;23.722;2023-07-20T15:34:50;41.60;22.20
80212;DHT22;70434;37.956;23.722;2023-07-20T15:37:16;41.50;22.20